Tiempo atmosférico en la estación meteorológica de Palma Aeropuerto, Illes Balears (8 m.)



Fecha
DESCASC
Temp. máxima en grados centígrados (hora)
DESCASC
Temp. mínima en grados centígrados (hora)
DESCASC
Temp. media en grados centígrados
DESCASC
Racha de viento máxima en m/sg (hora)
DESCASC
Velocidad máxima media en intervalos de 10 minutos(hora)
DESCASC
Precipitaciones diarias en mm
DESCASC
Precipitaciones de 00:00 a 06:00 en mm
DESCASC
Precipitaciones de 06:00 a 12:00 en mm
DESCASC
Precipitaciones de 12:00 a 18:00 en mm
DESCASC
Precipitaciones de 18:00 a 24:00 en mm
DESCASC

Gráficas

Temp. máximas Temp. mínimas Temp. medias Precipitaciones Rachas de viento máximas Velocidades máximas media en intervalos de 10 minutos

Datos horarios

Fecha y hora oficial Temperatura (ºC) Velocidad del viento (km/h) Dirección del viento Racha (km/h) Dirección de racha Precipitación (mm) Presión (hPa) Tendencia (hPa) Humedad (%)
2019-04-17 23:00:00 14.9 23 Este 32 Este 0 1016.5 0.7 77
2019-04-17 22:00:00 14.8 18 Nordeste 26 Este 0 1016.8 1.3 78
2019-04-17 21:00:00 15.4 17 Este 28 Este 0 1016.5 1.3 72
2019-04-17 20:00:00 17 23 Este 30 Este 0 1015.8 0.4 65
2019-04-17 19:00:00 19.1 22 Este 32 Este 0 1015.5 -0.4 57
2019-04-17 18:00:00 20.9 24 Este 35 Este 0 1015.2 -1.7 47
2019-04-17 17:00:00 21.9 22 Este 32 Este 0 1015.4 -2.2 44
2019-04-17 16:00:00 22.8 11 Este 22 Este 0 1015.9 -2.5 45
2019-04-17 15:00:00 21 15 Oeste 26 Oeste 0 1016.9 -1.7 55
2019-04-17 14:00:00 20.2 17 Oeste 26 Oeste 0 1017.6 -1.3 57
2019-04-17 13:00:00 19.9 18 Sudoeste 30 Sudoeste 0 1018.4 -0.4 60
2019-04-17 12:00:00 19.4 13 Este 26 Este 0 1018.6 -0.1 56
2019-04-17 11:00:00 18.1 17 Este 28 Este 0 1018.9 0.3 62
2019-04-17 10:00:00 16.1 14 Nordeste 24 Este 0 1018.8 0.5 71
2019-04-17 09:00:00 13.1 7 Nordeste 11 Este 0 1018.7 0.2 83
2019-04-17 08:00:00 9.4 6 Nordeste 8 Nordeste 0 1018.6 0 97
2019-04-17 07:00:00 8.3 6 Nordeste -- -- 0 1018.3 -1 97
2019-04-17 06:00:00 8.6 5 Este 8 Este 0 1018.5 -1.1 96
2019-04-17 05:00:00 8.6 4 Este 8 Noroeste 0 1018.6 -1.3 93
2019-04-17 04:00:00 9.6 4 Norte -- -- -- 1019.3 -0.6 92
2019-04-17 03:00:00 10.1 5 Nordeste 9 Nordeste 0 1019.6 -0.2 92
2019-04-17 02:00:00 11.2 8 Nordeste 9 Nordeste 0 1019.9 0.4 89
2019-04-17 01:00:00 13 5 Sudeste 9 Sudeste 0 1019.9 0.2 83
2019-04-17 00:00:00 13.5 7 Norte 21 Este 0 1019.8 0.4 77
2019-04-16 23:00:00 13.8 13 Este 21 Este 0 1019.5 0.6 80
2019-04-16 22:00:00 14.3 14 Este 21 Este 0 1019.7 1.1 76
2019-04-16 21:00:00 15.1 17 Este 24 Este 0 1019.4 1 67
2019-04-16 20:00:00 17 19 Este 30 Este 0 1018.9 0.8 64
2019-04-16 19:00:00 18.4 20 Este 28 Este 0 1018.6 0.4 54
2019-04-16 18:00:00 19.9 13 Sudoeste 28 Sudoeste 0 1018.4 0.1 44
2019-04-16 17:00:00 20 17 Sudoeste 30 Sudoeste 0 1018.1 -0.3 48
2019-04-16 16:00:00 19.8 22 Sudoeste 32 Sudoeste 0 1018.2 -0.1 55
2019-04-16 15:00:00 19.3 26 Sudoeste 33 Sudoeste 0 1018.3 -0.6 56
2019-04-16 14:00:00 19.7 23 Sudoeste 33 Sudoeste 0 1018.4 -0.1 48
2019-04-16 13:00:00 19.3 15 Sudoeste 26 Sudoeste 0 1018.3 0.7 45
2019-04-16 12:00:00 18.5 20 Sudoeste 26 Sudoeste 0 1018.9 1.5 49
2019-04-16 11:00:00 19.1 9 Oeste 17 Oeste 0 1018.5 1.8 43
2019-04-16 10:00:00 16.6 0 Calma 8 Este 0 1017.6 2.2 65
2019-04-16 09:00:00 13 6 Sudeste 13 Este 0 1017.4 1.9 90
2019-04-16 08:00:00 11.9 2 Oeste 26 Este 0 1016.7 1.1 89
2019-04-16 07:00:00 11.5 12 Este 17 Este 0 1015.4 -0.5 94
2019-04-16 06:00:00 11.2 8 Nordeste 17 Norte 0 1015.5 -0.5 91
2019-04-16 05:00:00 10.6 7 Norte 15 Este 0 1015.6 -0.2 82
2019-04-16 04:00:00 10.3 6 Norte 15 Norte 0 1015.9 0 72
2019-04-16 03:00:00 10.2 6 Norte 9 Noroeste 0 1016 -0.3 76
2019-04-16 02:00:00 10 3 Norte 9 Este 0 1015.8 -0.5 78
2019-04-16 01:00:00 11.3 9 Este 11 Este 0 1015.9 0.3 74
2019-04-16 00:00:00 12 6 Norte 13 Nordeste 0 1016.3 0.7 71
2019-04-15 23:00:00 13.1 11 Nordeste 24 Este 0 1016.3 1.2 63
2019-04-15 22:00:00 14.6 14 Nordeste 21 Este 0 1015.6 0.2 53
2019-04-15 21:00:00 16.6 8 Sudeste 21 Este 0 1015.6 0.4 32
2019-04-15 20:00:00 18 14 Sudeste 26 Sudeste 0 1015.1 0.2 27
2019-04-15 19:00:00 19.5 17 Sudeste 26 Sudeste 0 1015.4 0.2 27
2019-04-15 18:00:00 20.5 15 Sudeste 26 Sudeste 0 1015.2 -0.6 26
2019-04-15 17:00:00 21.5 17 Sudeste 28 Sudeste 0 1014.9 -1.4 25
2019-04-15 16:00:00 21.6 18 Sudeste 35 Sudeste 0 1015.2 -1.7 24
2019-04-15 15:00:00 21.9 19 Sudeste 32 Sudeste 0 1015.8 -1.3 25
2019-04-15 14:00:00 21.4 14 Sudeste 33 Sudeste 0 1016.3 -0.9 29
2019-04-15 13:00:00 22.3 13 Sur 26 Sur 0 1016.9 -0.3 26
2019-04-15 12:00:00 20.5 13 Este 26 Sudeste 0 1017.1 -0.1 35
2019-04-15 11:00:00 19.3 16 Este 26 Este 0 1017.2 0.4 37
2019-04-15 10:00:00 16.9 15 Nordeste 24 Este 0 1017.2 1 50
2019-04-15 09:00:00 13.4 4 Nordeste 9 Nordeste 0 1017.2 0.9 62
2019-04-15 08:00:00 10.3 5 Nordeste 11 Nordeste 0 1016.8 0.3 78
2019-04-15 07:00:00 10 6 Este 13 Sudeste 0 1016.2 -0.2 85
2019-04-15 06:00:00 10.2 7 Este 11 Sudeste 0 1016.3 -0.4 86
2019-04-15 05:00:00 11.2 6 Este 9 Sudeste 0 1016.5 -0.2 79
2019-04-15 04:00:00 11.6 4 Este 11 Este 0 1016.4 -0.3 81
2019-04-15 03:00:00 11.8 5 Nordeste 11 Este 0 1016.7 0.5 78
2019-04-15 02:00:00 11.9 9 Este 13 Este 0 1016.7 0.7 85
2019-04-15 01:00:00 12.4 5 Este 11 Este 0 1016.7 1 85
2019-04-15 00:00:00 12.9 5 Nordeste 9 Este 0 1016.2 1.5 83
2019-04-14 23:00:00 14.1 6 Nordeste 9 Este 0 1016 2.2 80
2019-04-14 22:00:00 16.5 8 Sudeste 15 Sudoeste 0 1015.7 2.6 64
2019-04-14 21:00:00 17.7 9 Sudeste 15 Sudoeste 0 1014.7 1.5 49
2019-04-14 20:00:00 18.1 3 Sur 22 Sudoeste 0 1013.8 0.7 52
2019-04-14 19:00:00 19.8 14 Sur 26 Sudoeste 0 1013.1 -0.3 45
2019-04-14 18:00:00 20.1 18 Sudoeste 32 Sudoeste 0 1013.2 -0.4 53
2019-04-14 17:00:00 19.7 24 Sudoeste 35 Sur 0 1013.1 -0.4 64
2019-04-14 16:00:00 20.7 15 Sur 30 Sudoeste 0 1013.4 -0.6 58
2019-04-14 15:00:00 20.3 18 Sur 30 Sudoeste 0 1013.6 -0.7 58
2019-04-14 14:00:00 19.3 20 Sur 33 Sudoeste 0 1013.5 -1.1 60
2019-04-14 13:00:00 19.9 25 Sudoeste 32 Sudoeste 0 1014 -0.4 53
2019-04-14 12:00:00 19.2 20 Sudoeste 32 Sudoeste 0 1014.3 -0.3 70
2019-04-14 11:00:00 17.5 17 Sudoeste 28 Sudoeste 0 1014.6 -0.1 79
2019-04-14 10:00:00 15 13 Sudoeste 18 Sudoeste 0 1014.4 -0.3 96
2019-04-14 09:00:00 11.1 0 Calma 5 Nordeste 0 1014.6 -0.3 100
2019-04-14 08:00:00 8.4 4 Norte 8 Norte 0 1014.7 -0.7 100
2019-04-14 07:00:00 7.6 3 Nordeste 8 Norte 0 1014.7 -1 99
2019-04-14 06:00:00 7.3 3 Norte 8 Noroeste 0 1014.9 -1.3 97
2019-04-14 05:00:00 7.3 2 Noroeste 5 Noroeste 0 1015.4 -1.5 96
2019-04-14 04:00:00 8.7 0 Calma -- -- 0 1015.7 -1.6 96
2019-04-14 03:00:00 10.6 0 Calma 8 Nordeste 0 1016.2 -1.1 95
2019-04-14 02:00:00 11.3 0 Calma 9 Oeste 0 1016.9 -0.2 89
2019-04-14 01:00:00 11.3 4 Noroeste 8 Noroeste 0 1017.3 0 93
2019-04-14 00:00:00 12.6 0 Calma 17 Oeste 0 1017.3 0.5 92
2019-04-13 23:00:00 14 12 Oeste 21 Sudoeste 0 1017.1 0.7 90
2019-04-13 22:00:00 14.8 16 Sudoeste 22 Oeste 0 1017.3 1.3 88
2019-04-13 21:00:00 15.2 20 Oeste 32 Oeste 0 1016.8 0.8 84
2019-04-13 20:00:00 16.1 26 Sudoeste 39 Sudoeste 0 1016.4 0.3 76
2019-04-13 19:00:00 17.2 32 Sudoeste 41 Sudoeste 0 1016 -0.2 69
2019-04-13 18:00:00 17.9 30 Sudoeste 41 Sudoeste 0 1016 -0.9 65
2019-04-13 17:00:00 18.7 31 Sudoeste 41 Sudoeste 0 1016.1 -1.1 54
2019-04-13 16:00:00 18.7 33 Sudoeste 41 Sudoeste 0 1016.2 -1.3 61
2019-04-13 15:00:00 18.4 32 Sudoeste 41 Sudoeste 0 1016.9 -1 64
2019-04-13 14:00:00 18.3 26 Sudoeste 37 Sudoeste 0 1017.2 -0.7 66
2019-04-13 13:00:00 18 22 Sudoeste 33 Sudoeste 0 1017.5 -0.2 64
2019-04-13 12:00:00 17.6 21 Sudoeste 30 Sudoeste 0 1017.9 0.4 63
2019-04-13 11:00:00 16.6 15 Sudoeste 21 Sudoeste 0 1017.9 0.8 63
2019-04-13 10:00:00 14.8 2 Norte 5 Nordeste 0 1017.7 1 68
2019-04-13 09:00:00 10.7 4 Nordeste 5 Nordeste 0 1017.5 1.2 84
2019-04-13 08:00:00 6.1 5 Norte 8 Norte 0 1017.1 0.5 95
2019-04-13 07:00:00 5.7 3 Nordeste 5 Nordeste 0 1016.7 -0.1 95
2019-04-13 06:00:00 6.1 3 Nordeste 8 Nordeste 0 1016.3 -0.9 94
2019-04-13 05:00:00 6.2 4 Este 11 Este 0 1016.6 -0.9 92
2019-04-13 04:00:00 7.3 0 Calma 8 Este 0 1016.8 -0.6 92
2019-04-13 03:00:00 7.4 6 Nordeste 8 Nordeste 0 1017.2 0 91
2019-04-13 02:00:00 8.8 5 Norte 11 Norte 0 1017.5 0.9 88
2019-04-13 01:00:00 9.8 0 Calma 9 Norte 0 1017.4 1.2 85
2019-04-13 00:00:00 9.6 3 Norte 11 Este 0 1017.2 1.6 84
2019-04-12 23:00:00 11.4 3 Este 9 Nordeste 0 1016.6 1.2 78
2019-04-12 22:00:00 13.6 6 Sudeste 15 Sur 0 1016.2 0.9 69
2019-04-12 21:00:00 14.9 12 Sur 22 Sudoeste 0 1015.6 0.3 68
2019-04-12 20:00:00 15.8 17 Sudoeste 28 Sudoeste 0 1015.4 0.4 62
2019-04-12 19:00:00 16.8 20 Sudoeste 32 Sudoeste 0 1015.3 0 59
2019-04-12 18:00:00 17.6 21 Sudoeste 32 Sudoeste 0 1015.3 -0.2 56
2019-04-12 17:00:00 18.1 22 Sur 39 Sudoeste 0 1015 -0.3 55
2019-04-12 16:00:00 18.2 26 Sur 39 Sudoeste 0 1015.3 0.1 49
2019-04-12 15:00:00 18.9 24 Sudoeste 35 Sudoeste 0 1015.5 0.2 52
2019-04-12 14:00:00 19 28 Sudoeste 37 Sudoeste 0 1015.3 -0.1 48
2019-04-12 13:00:00 19.2 23 Sudoeste 30 Sudoeste 0 1015.2 0.2 42
2019-04-12 12:00:00 18.7 9 Sudoeste 18 Nordeste 0 1015.3 0.6 41
2019-04-12 11:00:00 17.6 9 Este -- -- -- 1015.4 0.9 45
2019-04-12 10:00:00 15.6 0 Calma 8 Nordeste 0 1015 1.1 63
2019-04-12 09:00:00 12.8 4 Nordeste 11 Nordeste 0 1014.7 1.1 80
2019-04-12 08:00:00 12 5 Este 9 Este 0 1014.5 1 84
2019-04-12 07:00:00 11.7 4 Norte -- -- 0 1013.9 0.2 85
2019-04-12 06:00:00 12 4 Nordeste 9 Norte 0 1013.6 -0.1 81
2019-04-12 05:00:00 12.8 5 Noroeste 9 Noroeste 0 1013.5 -0.6 75
2019-04-12 04:00:00 13.3 4 Noroeste 11 Noroeste 0 1013.7 -0.7 72
2019-04-12 03:00:00 14 11 Sudoeste 18 Sudoeste 0 1013.7 -1 79
2019-04-12 02:00:00 14.3 13 Oeste 21 Oeste 0 1014.1 -0.4 73
2019-04-12 01:00:00 14.3 13 Oeste 18 Sudoeste 0 1014.4 0.2 59
2019-04-12 00:00:00 14.6 5 Oeste 17 Oeste 0 1014.7 1.1 54
2019-04-11 23:00:00 14.4 8 Oeste 17 Oeste 0 1014.5 1.8 62
2019-04-11 22:00:00 15.2 4 Oeste 15 Noroeste 0 1014.2 1.7 56
2019-04-11 21:00:00 15.9 8 Noroeste 32 Oeste 0 1013.6 1.2 42
2019-04-11 20:00:00 16.2 22 Oeste 32 Sudoeste 0 1012.7 0.4 60
2019-04-11 19:00:00 19.5 13 Oeste 28 Oeste 0 1012.5 0.2 27
2019-04-11 18:00:00 19.3 18 Noroeste 35 Noroeste 0 1012.4 -0.1 31
2019-04-11 17:00:00 19.8 22 Noroeste 37 Norte 0 1012.3 -0.2 31
2019-04-11 16:00:00 20 19 Noroeste 32 Noroeste 0 1012.3 -0.5 36
2019-04-11 15:00:00 19.9 22 Noroeste 35 Noroeste 0 1012.5 -0.8 41
2019-04-11 14:00:00 20.7 19 Norte 32 Noroeste 0 1012.5 -0.5 36
2019-04-11 13:00:00 19.8 18 Noroeste 33 Norte 0 1012.8 0 38
2019-04-11 12:00:00 19 15 Sudoeste 26 Oeste 0 1013.3 0.7 49
2019-04-11 11:00:00 18.3 14 Noroeste 24 Oeste 0 1013 0.9 51
2019-04-11 10:00:00 15.9 10 Noroeste 17 Noroeste 0 1012.8 1.3 66
2019-04-11 09:00:00 11.1 7 Este 11 Este 0 1012.6 1.1 79
2019-04-11 08:00:00 9.5 4 Este 11 Este 0 1012.1 0.6 84
2019-04-11 07:00:00 8.8 3 Nordeste 15 Este 0 1011.5 0 86
2019-04-11 06:00:00 8.3 5 Este 9 Este 0 1011.5 -0.3 85
2019-04-11 05:00:00 8.4 8 Nordeste 11 Nordeste 0 1011.5 -0.7 86
2019-04-11 04:00:00 9.2 5 Este 9 Nordeste 0 1011.5 -0.7 85
2019-04-11 03:00:00 9.4 7 Este 11 Este 0 1011.8 -0.2 84
2019-04-11 02:00:00 11 5 Oeste 9 Este 0 1012.2 0.1 76
2019-04-11 01:00:00 10.7 0 Calma 11 Este 0 1012.2 0.2 81
2019-04-11 00:00:00 11.6 9 Norte 11 Norte 0 1012 1.1 66
2019-04-10 23:00:00 12.6 3 Noroeste 11 Oeste 0 1012.1 1.8 62
2019-04-10 22:00:00 13.2 6 Sudoeste 18 Noroeste 0 1012 2.2 66
2019-04-10 21:00:00 14.3 12 Oeste 24 Noroeste 0 1010.9 1.6 60
2019-04-10 20:00:00 16.5 15 Noroeste 26 Noroeste 0 1010.3 1.1 54
2019-04-10 19:00:00 18.3 18 Noroeste 28 Noroeste 0 1009.8 0.6 41
2019-04-10 18:00:00 18.8 19 Noroeste 30 Noroeste 0 1009.3 -0.1 35
2019-04-10 17:00:00 19.2 16 Noroeste 30 Noroeste 0 1009.2 -0.4 37
2019-04-10 16:00:00 18.9 14 Noroeste 28 Norte 0 1009.2 -0.8 41
2019-04-10 15:00:00 19 15 Oeste 30 Oeste 0 1009.4 -1 40
2019-04-10 14:00:00 17.6 13 Noroeste 30 Noroeste -- 1009.6 -0.5 49
2019-04-10 13:00:00 -- 18 Noroeste 32 Noroeste 0 1010 0.1 --
2019-04-10 12:00:00 14.8 13 Sudoeste 24 Sudoeste 0 1010.4 0.6 69
2019-04-10 11:00:00 15.6 9 Noroeste 17 Oeste 0 1010.1 0.8 66
2019-04-10 10:00:00 12.4 0 Calma 8 Sur 0 1009.9 1.3 80
2019-04-10 09:00:00 11 0 Calma 11 Sudeste 0 1009.8 2.2 91
2019-04-10 08:00:00 10.9 9 Este 18 Noroeste 1 1009.3 2 87
2019-04-10 07:00:00 11.4 16 Noroeste 37 Noroeste 0.4 1008.6 1 80
2019-04-10 06:00:00 13.4 18 Noroeste 37 Noroeste 0 1007.6 -0.4 62
2019-04-10 05:00:00 11.5 0 Calma 8 Norte 0 1007.3 -1.7 79
2019-04-10 04:00:00 13.3 0 Calma 21 Oeste 0 1007.6 -1.7 72
2019-04-10 03:00:00 14.1 16 Oeste 26 Oeste 0 1008 -1.6 68
2019-04-10 02:00:00 14.5 16 Oeste 32 Oeste 0 1009 -0.9 65
2019-04-10 01:00:00 14.7 19 Oeste 28 Oeste 0 1009.3 -0.8 64
2019-04-10 00:00:00 14.8 16 Oeste 41 Oeste 0 1009.6 -0.5 65
2019-04-09 23:00:00 15.2 26 Oeste 45 Oeste 0 1009.9 0.5 63
2019-04-09 22:00:00 15.2 18 Sudoeste 26 Sudoeste 0 1010.1 0.8 76
2019-04-09 21:00:00 15.2 19 Sudoeste 26 Sudoeste 0 1010.1 0.6 68
2019-04-09 20:00:00 16.2 21 Sudoeste 30 Sudoeste 0 1009.4 -0.2 59
2019-04-09 19:00:00 17.6 24 Sudoeste 41 Sudoeste 0 1009.3 -0.5 47
2019-04-09 18:00:00 18.2 31 Sudoeste 45 Sudoeste 0 1009.5 -0.3 40
2019-04-09 17:00:00 18.1 37 Oeste 46 Sudoeste 0 1009.6 -0.5 49
2019-04-09 16:00:00 19.5 15 Noroeste 37 Oeste 0 1009.8 0.1 37
2019-04-09 15:00:00 19.9 22 Oeste 39 Noroeste 0 1009.8 0.3 38
2019-04-09 14:00:00 19 23 Noroeste 41 Noroeste 0 1010.1 1.1 50
2019-04-09 13:00:00 19.1 28 Noroeste 42 Noroeste 0 1009.7 1.2 52
2019-04-09 12:00:00 18.7 22 Noroeste 39 Noroeste 0 1009.5 0.6 55
2019-04-09 11:00:00 19.2 19 Noroeste 33 Noroeste 0 1009 0.6 48
2019-04-09 10:00:00 16.8 21 Noroeste 39 Noroeste 0 1008.5 -0.2 64
2019-04-09 09:00:00 15.8 26 Oeste 39 Oeste 0 1008.9 0.2 74
2019-04-09 08:00:00 13.9 19 Sudoeste 28 Sudoeste 0 1008.4 -0.6 96
2019-04-09 07:00:00 10.1 4 Este 8 Este 0 1008.7 -1.2 99
2019-04-09 06:00:00 10.5 0 Calma 8 Noroeste 0 1008.7 -1.8 99
2019-04-09 05:00:00 10.2 0 Calma 5 Noroeste 0 1009 -1.9 98
2019-04-09 04:00:00 10.8 0 Calma 5 Norte 0 1009.9 -1.4 98
2019-04-09 03:00:00 10.8 5 Norte 8 Norte 0 1010.5 -0.9 98
2019-04-09 02:00:00 11.4 0 Calma 5 Nordeste 0 1010.9 -0.8 96
2019-04-09 01:00:00 12.2 0 Calma 8 Nordeste 0 1011.3 -0.6 96
2019-04-09 00:00:00 12.1 0 Calma 9 Nordeste 0 1011.4 -0.1 93
2019-04-08 23:00:00 12.9 3 Sudeste 9 Este 0 1011.7 0.7 90
2019-04-08 22:00:00 14.6 8 Sudoeste 18 Sudoeste 0 1011.9 1.3 86
2019-04-08 21:00:00 15.6 15 Sudoeste 32 Sudoeste 0 1011.5 1 79
2019-04-08 20:00:00 16.5 29 Sudoeste 35 Sudoeste 0 1011 0.4 69
2019-04-08 19:00:00 17.9 27 Sudoeste 41 Sudoeste 0 1010.6 -0.4 62
2019-04-08 18:00:00 18.6 35 Sudoeste 42 Sudoeste 0 1010.5 -1.1 59
2019-04-08 17:00:00 18.9 36 Sudoeste 45 Sudoeste 0 1010.6 -1.5 58
2019-04-08 16:00:00 18.8 33 Oeste 41 Oeste 0 1011 -1.5 57
2019-04-08 15:00:00 18.7 31 Sudoeste 41 Sudoeste 0 1011.6 -1 62
2019-04-08 14:00:00 18.2 27 Sudoeste 37 Sudoeste 0 1012.1 -- 62
2019-04-08 13:00:00 17 22 Sudoeste 32 Sudoeste 0 1012.5 -0.2 60
2019-04-08 12:00:00 16.5 18 Sudoeste 28 Sudoeste 0 1012.6 -0.3 66
2019-04-08 11:00:00 16.5 15 Sudoeste 24 Sudoeste 0 -- -- 66
2019-04-08 10:00:00 15.6 0 Calma 8 Sur 0 1012.7 0.1 74
2019-04-08 09:00:00 8.9 2 Sur 8 Sudoeste 0 1012.9 0 91
2019-04-08 08:00:00 6 5 Nordeste 8 Nordeste 0 1012.9 -0.4 94
2019-04-08 07:00:00 5.3 5 Norte 8 Norte 0 1012.6 -0.9 94
2019-04-08 06:00:00 4.4 3 Norte 9 Noroeste 0 1012.9 -1.1 93
2019-04-08 05:00:00 4.3 5 Norte 5 Norte 0 1013.3 -1.1 95
2019-04-08 04:00:00 4.3 4 Norte 8 Norte 0 1013.5 -1 94
2019-04-08 03:00:00 4.7 3 Nordeste 9 Este 0 1014 -0.2 93
2019-04-08 02:00:00 5.4 8 Este -- -- 0 1014.4 0.5 90
2019-04-08 01:00:00 6.7 4 Norte 8 Norte 0 1014.5 1 86
2019-04-08 00:00:00 8.2 4 Este 9 Nordeste 0 1014.2 1.6 79
2019-04-07 23:00:00 9 10 Nordeste 15 Este 0 1013.9 1.8 78
2019-04-07 22:00:00 11.9 12 Oeste 15 Oeste 0 1013.5 2.5 61
2019-04-07 21:00:00 12.6 6 Noroeste 21 Noroeste 0 1012.6 2.6 61
2019-04-07 20:00:00 14.9 14 Noroeste 24 Noroeste 0 1012.1 2.8 54
2019-04-07 19:00:00 15.7 11 Noroeste 35 Noroeste 0 1011 2.5 51
2019-04-07 18:00:00 15.4 20 Norte 39 Norte 0 1010 2 47
2019-04-07 17:00:00 16.1 22 Noroeste 48 Noroeste 0 1009.3 1.4 49
2019-04-07 16:00:00 15.8 29 Noroeste 46 Norte 0 1008.5 1.3 48
2019-04-07 15:00:00 15.5 25 Noroeste 41 Noroeste 0 1008 1.5 48
2019-04-07 14:00:00 14.6 24 Noroeste 37 Noroeste 0.2 1007.9 1.8 53
2019-04-07 13:00:00 15.3 22 Noroeste 39 Oeste 0 1007.2 1.4 51
2019-04-07 12:00:00 15.5 20 Noroeste 39 Noroeste 0 1006.5 1.6 55
2019-04-07 11:00:00 12.8 13 Oeste 24 Oeste 0 1006.1 1.9 71
2019-04-07 10:00:00 12.9 14 Noroeste 30 Noroeste 0 1005.8 2.4 62
2019-04-07 09:00:00 11.5 14 Noroeste 24 Noroeste 0 1004.9 2.3 71
2019-04-07 08:00:00 10.1 0 Calma 28 Oeste 3.3 1004.2 1.7 84
2019-04-07 07:00:00 11.5 14 Oeste 22 Oeste 0 1003.4 0.6 74
2019-04-07 06:00:00 11.6 10 Oeste 24 Oeste 0 1002.6 -0.5 72
2019-04-07 05:00:00 12.4 19 Oeste 30 Oeste 0 1002.5 -1.3 65
2019-04-07 04:00:00 12.6 16 Oeste 28 Oeste 0 1002.8 -1.5 65
2019-04-07 03:00:00 13.2 20 Oeste 33 Oeste 0 1003.1 -1.7 63
2019-04-07 02:00:00 13 18 Oeste 32 Oeste 0 1003.8 -1.3 70
2019-04-07 01:00:00 13.2 22 Oeste 30 Oeste 0 1004.3 -0.5 68
2019-04-07 00:00:00 12.4 13 Oeste 24 Sudoeste 0 1004.8 -0.1 68
2019-04-06 23:00:00 12.5 13 Oeste 28 Sudoeste 0 1005.1 0.6 65
2019-04-06 22:00:00 13 9 Oeste 30 Sudoeste 0 1004.8 0.3 63
2019-04-06 21:00:00 13.7 24 Sudoeste 33 Oeste 0 1004.9 0.6 64
2019-04-06 20:00:00 14.5 23 Oeste 41 Sudoeste 0 1004.5 0.5 55
2019-04-06 19:00:00 14.7 32 Oeste 46 Oeste 0 1004.5 0.5 56
2019-04-06 18:00:00 15 33 Oeste 54 Oeste 0 1004.3 0.2 52
2019-04-06 17:00:00 15.6 34 Oeste 48 Oeste 0 1004 0.1 46
2019-04-06 16:00:00 15.4 35 Oeste 58 Oeste 0 1004 0.1 46
2019-04-06 15:00:00 16.1 37 Oeste 50 Sudoeste 0 1004.1 0.4 47
2019-04-06 14:00:00 15.8 34 Oeste 50 Oeste 0 1003.9 0.8 50
2019-04-06 13:00:00 15.3 31 Oeste 50 Oeste 0 1003.9 1.6 52
2019-04-06 12:00:00 14.6 36 Oeste 48 Oeste 0 1003.7 1.6 55
2019-04-06 11:00:00 14.2 36 Oeste 50 Oeste 0 1003.1 1.3 55
2019-04-06 10:00:00 13.7 25 Oeste 48 Oeste 0 1002.3 1.1 56
2019-04-06 09:00:00 12.8 31 Oeste 54 Oeste 0 1002.1 1.3 60
2019-04-06 08:00:00 12.6 40 Oeste 55 Oeste 0 1001.8 1.3 64
2019-04-06 07:00:00 11.7 17 Oeste 48 Oeste 0 1001.2 1 66
2019-04-06 06:00:00 11.6 20 Oeste 45 Oeste 0 1000.8 -0.2 66
2019-04-06 05:00:00 9.3 11 Sudoeste 18 Oeste 0 1000.5 -0.3 89
2019-04-06 04:00:00 9.7 13 Oeste 24 Noroeste 0.6 1000.2 -0.6 88
2019-04-06 03:00:00 10.4 28 Oeste 55 Sudoeste 9.2 1001 0.3 91
2019-04-06 02:00:00 13.1 18 Sudoeste 35 Sudoeste 0 1000.8 0.6 78
2019-04-06 01:00:00 13 22 Sudoeste 30 Sudoeste 0 1000.8 0.2 79
2019-04-06 00:00:00 12.8 14 Sudoeste 18 Sudoeste 0 1000.7 0.4 83
2019-04-05 23:00:00 13.9 13 Oeste 42 Sudoeste 1 1000.2 -0.2 79
2019-04-05 22:00:00 15.1 32 Sudoeste 46 Sudoeste 0.2 1000.6 -0.3 79
2019-04-05 21:00:00 15.3 27 Sudoeste 46 Sur 0 1000.3 -0.6 74
2019-04-05 20:00:00 15.7 30 Sur 41 Sur 0 1000.4 -0.6 71
2019-04-05 19:00:00 15.9 24 Sur 45 Sudoeste 0 1000.9 -0.7 69
2019-04-05 18:00:00 15.9 26 Sur 41 Sur 0 1000.9 -1.7 72
2019-04-05 17:00:00 15.7 24 Sur 42 Sur 0 1001 -1.9 74
2019-04-05 16:00:00 18.2 29 Sur 41 Sudoeste 0 1001.6 -1.8 56
2019-04-05 15:00:00 17.4 26 Sur 37 Sur 0 1002.6 -1.4 58
2019-04-05 14:00:00 17.8 23 Sur 37 Sudoeste 0 1002.9 -1.2 53
2019-04-05 13:00:00 17.6 21 Sudoeste 30 Sudoeste 0 1003.4 -0.6 49
2019-04-05 12:00:00 16.7 19 Sudoeste 30 Sudoeste 0 1004 -0.1 48
2019-04-05 11:00:00 15.8 14 Sudoeste 24 Sudoeste 0 1004.1 0 50
2019-04-05 10:00:00 12.3 0 Calma 5 Norte 0 1004 0.2 57
2019-04-05 09:00:00 7.1 0 Calma 5 Norte 0 1004.1 0.5 78
2019-04-05 08:00:00 2.2 0 Calma 8 Este 0 1004.1 0.2 93
2019-04-05 07:00:00 1.5 0 Calma 8 Nordeste 0 1003.8 -0.3 93
2019-04-05 06:00:00 1.9 7 Este 9 Nordeste 0 1003.6 -0.9 92
2019-04-05 05:00:00 1.9 5 Nordeste 8 Este 0 1003.9 -0.8 90
2019-04-05 04:00:00 2.9 5 Nordeste 9 Este 0 1004.1 -0.7 88
2019-04-05 03:00:00 3.4 0 Calma 9 Este 0 1004.5 -0.2 85
2019-04-05 02:00:00 4.9 0 Calma 8 Norte 0 1004.7 -0.3 79
2019-04-05 01:00:00 4.9 5 Norte 8 Norte 0 1004.8 0 75
2019-04-05 00:00:00 5.8 4 Norte 11 Norte 0 1004.7 0.5 68
2019-04-04 23:00:00 6.4 9 Norte 13 Norte 0 1005 1 60
2019-04-04 22:00:00 8.3 2 Nordeste 13 Norte 0 1004.8 1 56
2019-04-04 21:00:00 10.3 7 Noroeste 13 Noroeste 0 1004.2 0.8 48
2019-04-04 20:00:00 13.6 9 Noroeste 18 Noroeste 0 1004 0.3 36
2019-04-04 19:00:00 15.5 11 Noroeste 26 Oeste 0 1003.8 0.1 32
2019-04-04 18:00:00 16.2 17 Noroeste 28 Noroeste 0 1003.4 -0.8 29
2019-04-04 17:00:00 16.2 16 Noroeste 33 Noroeste 0 1003.7 -0.5 34
2019-04-04 16:00:00 16.4 14 Noroeste 32 Noroeste 0 1003.7 -0.8 32
2019-04-04 15:00:00 15.7 20 Noroeste 39 Noroeste 0 1004.2 -0.2 33
2019-04-04 14:00:00 15.2 21 Noroeste 41 Norte 0 1004.2 0.5 34
2019-04-04 13:00:00 14.7 27 Noroeste 45 Noroeste 0 1004.5 1.5 37
2019-04-04 12:00:00 14.2 28 Noroeste 42 Norte 0 1004.4 2 39
2019-04-04 11:00:00 13.8 23 Noroeste 42 Noroeste 0 1003.7 2 41
2019-04-04 10:00:00 12.7 21 Noroeste 35 Noroeste 0 1003 2.1 48
2019-04-04 09:00:00 11.7 20 Noroeste 33 Noroeste 0 1002.4 1.4 57
2019-04-04 08:00:00 10.8 9 Noroeste 18 Noroeste 0 1001.7 1 63
2019-04-04 07:00:00 11 9 Noroeste 17 Oeste 0 1000.9 0.1 68
2019-04-04 06:00:00 10.6 5 Sudoeste 13 Sur 0 1001 -0.4 76
2019-04-04 05:00:00 10.6 4 Este 15 Este 0 1000.7 -1.4 85
2019-04-04 04:00:00 10.9 13 Este 18 Este 0 1000.8 -1.2 86
2019-04-04 03:00:00 11.3 14 Este 21 Este 0 1001.4 -0.5 87
2019-04-04 02:00:00 11.9 16 Este 24 Nordeste 0.6 1002.1 0.3 84
2019-04-04 01:00:00 13.1 12 Norte 28 Norte 0 1002 0.7 77
2019-04-04 00:00:00 13.2 17 Norte 42 Norte 0 1001.9 1.2 72
2019-04-03 23:00:00 14.4 20 Norte 35 Norte 0 1001.8 1.1 74
2019-04-03 22:00:00 15.4 5 Oeste 17 Sur 0 1001.3 0.1 87
2019-04-03 21:00:00 15.7 6 Sudoeste 17 Sur 0 1000.7 -1.3 87
2019-04-03 20:00:00 15.8 10 Sudoeste 21 Sur 0 1000.7 -2.1 85
2019-04-03 19:00:00 16.8 14 Sudoeste 22 Sur 0 1001.2 -2.3 80
2019-04-03 18:00:00 17.6 16 Sudoeste 28 Sudoeste 0 1002 -2.6 74
2019-04-03 17:00:00 17.4 20 Sudoeste 30 Sudoeste 0 1002.8 -2.7 76
2019-04-03 16:00:00 17.9 20 Sudoeste 33 Sudoeste 0 1003.5 -2.9 75
2019-04-03 15:00:00 17.6 21 Sudoeste 33 Sur 0 1004.6 -2.8 77
2019-04-03 14:00:00 18 20 Sudoeste 30 Sur 0 1005.5 -2.7 72
2019-04-03 13:00:00 17.6 17 Sur 28 Sur 0 1006.4 -2 76
2019-04-03 12:00:00 17.3 19 Sudoeste 28 Sudoeste 0 1007.4 -1.2 74
2019-04-03 11:00:00 16.4 16 Sudoeste 26 Sudoeste 0 1008.2 -0.6 75
2019-04-03 10:00:00 15.8 18 Sudoeste 26 Sur 0 1008.4 -0.7 79
2019-04-03 09:00:00 15.4 15 Sudoeste 26 Sudoeste 0 1008.6 -0.8 84
2019-04-03 08:00:00 14.8 14 Sudoeste 22 Sur 0 1008.8 -1.2 87
2019-04-03 07:00:00 15 13 Sudoeste 21 Sur 0 1009.1 -1.5 88
2019-04-03 06:00:00 14.5 5 Sudeste 13 Sur 0 1009.4 -2.2 88
2019-04-03 05:00:00 15.1 10 Sur 15 Sudoeste 0 1010 -2.3 84
2019-04-03 04:00:00 14.9 11 Sudoeste 17 Sur 0 1010.6 -2.1 87
2019-04-03 03:00:00 15.3 13 Sudoeste 18 Sudoeste 0 1011.6 -1.4 83
2019-04-03 02:00:00 15.1 10 Sudoeste 17 Sudoeste 0 1012.3 -1 88
2019-04-03 01:00:00 14.8 9 Sudoeste 17 Sudoeste 0 1012.7 -0.8 89
2019-04-03 00:00:00 15.4 13 Sudoeste 22 Sudoeste 0 1013 0.2 86
2019-04-02 23:00:00 15.3 12 Sur 18 Sudoeste 0 1013.3 0.7 86
2019-04-02 22:00:00 15.2 12 Sudoeste 18 Sudoeste 0 1013.5 0.5 85
2019-04-02 21:00:00 15 8 Sudoeste 21 Sudoeste 0 1012.8 -0.5 84
2019-04-02 20:00:00 15.5 12 Sudoeste 24 Sudoeste 0 1012.6 -1 79
2019-04-02 19:00:00 16.8 17 Sudoeste 28 Sudoeste 0 1013 -1 76
2019-04-02 18:00:00 17.4 21 Sudoeste 32 Sudoeste 0 1013.3 -1.2 72
2019-04-02 17:00:00 18 23 Sudoeste 32 Sur 0 1013.6 -1.6 66
2019-04-02 16:00:00 18.1 23 Sudoeste 33 Sudoeste 0 1014 -1.7 63
2019-04-02 15:00:00 18.2 24 Sudoeste 35 Sudoeste 0 1014.5 -1.7 64
2019-04-02 14:00:00 17.8 23 Sudoeste 32 Sudoeste 0 1015.2 -0.9 61
2019-04-02 13:00:00 17.5 21 Sudoeste 30 Sudoeste 0 1015.7 0.1 66
2019-04-02 12:00:00 16.9 22 Sudoeste 30 Sudoeste 0 1016.2 0.7 70
2019-04-02 11:00:00 16.2 16 Sudoeste 22 Sudoeste 0 1016.1 0.5 73
2019-04-02 10:00:00 14.1 0 Calma 5 Nordeste 0 1015.6 0.4 76
2019-04-02 09:00:00 9.2 0 Calma 5 Norte 0 1015.5 0.5 94
2019-04-02 08:00:00 6.2 3 Norte 8 Norte 0 1015.6 0.4 97
2019-04-02 07:00:00 5.8 0 Calma -- -- 0 1015.2 -0.3 96
2019-04-02 06:00:00 6.2 0 Calma 4 Nordeste 0 1015 -0.8 96
2019-04-02 05:00:00 7 0 Calma 5 Norte 0 1015.2 -0.6 95
2019-04-02 04:00:00 7.7 0 Calma 5 Nordeste 0 1015.5 -0.6 94
2019-04-02 03:00:00 8.6 4 Este 8 Este 0 1015.8 -0.1 93
2019-04-02 02:00:00 10.2 5 Este 9 Norte 0 1015.8 0 88
2019-04-02 01:00:00 10.8 8 Noroeste 11 Norte 0 1016.1 0.3 88
2019-04-02 00:00:00 10.6 5 Norte 9 Este 0 1015.9 0.9 88
2019-04-01 23:00:00 11.8 8 Este 11 Este 0 1015.8 1.5 82
2019-04-01 22:00:00 13.6 3 Sur 13 Sur 0 1015.8 1.8 77
2019-04-01 21:00:00 15 7 Sur 18 Sur 0 1015 1 72
2019-04-01 20:00:00 15.3 14 Sur 28 Sudoeste 0 1014.3 0.4 71
2019-04-01 19:00:00 16.4 17 Sur 28 Sur 0 1014 0.2 65
2019-04-01 18:00:00 16.7 21 Sur 32 Sur 0 1014 0.1 61
2019-04-01 17:00:00 17.3 22 Sudoeste 33 Sudoeste 0 1013.9 -0.4 57
2019-04-01 16:00:00 19.1 12 Este 24 Sudeste 0 1013.8 -0.7 39
2019-04-01 15:00:00 18.5 12 Este 28 Nordeste 0 1013.9 -0.5 43
2019-04-01 14:00:00 18 17 Este 22 Este 0 1014.3 0.3 49
2019-04-01 13:00:00 16.5 16 Este 24 Este 0 1014.5 0.9 56
2019-04-01 12:00:00 16.4 17 Este 26 Este 0 1014.4 1.3 55
2019-04-01 11:00:00 15.3 10 Este 18 Nordeste 0 1014 1.4 72
2019-04-01 10:00:00 14 3 Nordeste 18 Nordeste 0 1013.6 1.4 77
2019-04-01 09:00:00 13.4 13 Nordeste 21 Norte 0 1013.1 1.2 79
2019-04-01 08:00:00 13 11 Nordeste 22 Nordeste 0 1012.6 0.4 83
2019-04-01 07:00:00 13.2 12 Nordeste 26 Nordeste 0 1012.2 0 84
2019-04-01 06:00:00 13 17 Nordeste 24 Nordeste 0 1011.9 -0.7 88
2019-04-01 05:00:00 13.1 12 Nordeste 26 Nordeste 0 1012.2 -0.4 89
2019-04-01 04:00:00 13 18 Nordeste 24 Nordeste 0 1012.2 -0.8 90
2019-04-01 03:00:00 13.2 14 Nordeste 22 Nordeste 0 1012.6 -0.4 91
2019-04-01 02:00:00 13.3 21 Nordeste 28 Nordeste 0 1012.6 -0.6 91
2019-04-01 01:00:00 13.4 7 Este 22 Este 0 1013 0.8 92
2019-04-01 00:00:00 13.6 15 Nordeste 22 Este 0.2 1013 0.9 94
2019-03-31 23:00:00 14 15 Este 30 Este 0 1013.2 0.9 93
2019-03-31 22:00:00 14.1 23 Nordeste 32 Nordeste 0 1012.2 -0.2 93
2019-03-31 21:00:00 14.3 19 Nordeste 32 Nordeste 0 1012.1 -0.2 91
2019-03-31 20:00:00 14.7 16 Nordeste 24 Nordeste 0 1012.3 0.1 90
2019-03-31 19:00:00 15.5 15 Este 26 Este 0 1012.4 -0.2 83
2019-03-31 18:00:00 16.3 21 Este 30 Este 0 1012.3 -1.2 76
2019-03-31 17:00:00 17.4 23 Este 32 Este 0 1012.2 -1.5 68
2019-03-31 16:00:00 17.5 22 Este 32 Este 0 1012.6 -1.6 67
2019-03-31 15:00:00 17.1 22 Este 33 Este 0 1013.5 -1.1 68
2019-03-31 14:00:00 17.9 27 Este 37 Este 0 1013.7 -0.9 64
2019-03-31 13:00:00 18 27 Este 37 Este 0 1014.2 -0.4 62
2019-03-31 12:00:00 17.8 27 Este 33 Este 0 1014.6 -0.2 59
2019-03-31 11:00:00 16.9 24 Este 39 Este 0 1014.6 -0.5 67
2019-03-31 10:00:00 15.4 24 Este 33 Este 0 1014.6 -0.8 77
2019-03-31 09:00:00 13.7 22 Este 32 Este 0 1014.8 -0.8 89
2019-03-31 08:00:00 12.4 18 Este 24 Este 0 1015.1 -1.1 93
2019-03-31 07:00:00 11.4 17 Este 22 Este 0 1015.4 -1.7 94
2019-03-31 06:00:00 10.3 6 Este 13 Este 0 1015.6 -2 93
2019-03-31 05:00:00 10.1 5 Nordeste 15 Nordeste 0 1016.2 -2.1 91
2019-03-31 03:00:00 11.4 6 Nordeste 17 Nordeste 0 1017.6 -1.9 86
2019-03-31 01:00:00 12.1 12 Nordeste 17 Nordeste 0 1018.3 -1.5 86
2019-03-31 00:00:00 11.3 8 Nordeste 13 Este 0 1018.9 -0.9 86
2019-03-30 23:00:00 12.5 10 Nordeste 15 Nordeste 0 1019.5 0.1 85
2019-03-30 22:00:00 12.4 9 Nordeste 11 Nordeste 0 1019.8 0.9 83
2019-03-30 21:00:00 12.4 11 Este 15 Este 0 1019.8 0.9 76
2019-03-30 20:00:00 14.5 12 Este 22 Este 0 1019.4 0.4 68
2019-03-30 19:00:00 15.8 19 Este 30 Este 0 1018.9 -0.6 62
2019-03-30 18:00:00 17.1 24 Este 32 Este 0 1018.9 -1.4 57
2019-03-30 17:00:00 18.5 9 Este 28 Sudoeste 0 1019 -1.9 57
2019-03-30 16:00:00 18 13 Sudoeste 24 Oeste 0 1019.5 -2 58
2019-03-30 15:00:00 17.6 20 Oeste 32 Oeste 0 1020.3 -1.7 60
2019-03-30 14:00:00 17.6 28 Sudoeste 37 Sudoeste 0 1020.9 -1.7 60
2019-03-30 13:00:00 18.6 17 Sudoeste 26 Sudoeste 0 1021.5 -1.7 51
2019-03-30 12:00:00 18.2 8 Nordeste 24 Este 0 1022 -1.4 46
2019-03-30 11:00:00 17.2 14 Este 28 Este 0 1022.6 -0.7 50
2019-03-30 10:00:00 15.7 13 Este 24 Este 0 1023.2 0.1 55
2019-03-30 09:00:00 14.2 0 Calma 8 Este 0 1023.4 0.2 60
2019-03-30 08:00:00 10.3 3 Nordeste 11 Nordeste 0 1023.3 -0.1 76
2019-03-30 07:00:00 8 4 Este 8 Este 0 1023.1 -0.8 85
2019-03-30 06:00:00 9 0 Calma 9 Este 0 1023.2 -1 82
2019-03-30 05:00:00 9.3 3 Nordeste 5 Este 0 1023.4 -1.3 84
2019-03-30 04:00:00 8.4 0 Calma 8 Sudeste 0 1023.9 -1.2 85
2019-03-30 03:00:00 7.3 0 Calma 4 Este 0 1024.2 -1.1 86
2019-03-30 02:00:00 7.5 0 Calma 5 Nordeste 0 1024.7 -0.8 85
2019-03-30 01:00:00 8 0 Calma -- -- 0 1025.1 -0.6 85
2019-03-30 00:00:00 8.2 5 Norte 9 Norte 0 1025.3 -0.1 85
2019-03-29 23:00:00 8.5 6 Nordeste 9 Nordeste 0 1025.5 0.5 83
2019-03-29 22:00:00 9.7 3 Nordeste 9 Norte 0 1025.7 1 77
2019-03-29 21:00:00 10.9 9 Nordeste 13 Este 0 1025.4 0.9 71
2019-03-29 20:00:00 12 0 Calma 13 Sur 0 1025 0.5 69
2019-03-29 19:00:00 14.1 9 Sur 24 Sudoeste 0 1024.7 -0.3 62
2019-03-29 18:00:00 15.5 15 Sudoeste 28 Sudoeste 0 1024.5 -1 57
2019-03-29 17:00:00 16.3 17 Sudoeste 35 Sudoeste 0 1024.5 -1.7 52
2019-03-29 16:00:00 16.5 21 Sudoeste 30 Oeste 0 1025 -1.4 53
2019-03-29 15:00:00 16.9 23 Sudoeste 33 Sudoeste 0 1025.5 -1.1 52
2019-03-29 14:00:00 17.1 28 Sudoeste 37 Sudoeste 0 1026.2 -0.9 53
2019-03-29 13:00:00 18.1 13 Nordeste 33 Este 0 1026.4 -1 31
2019-03-29 12:00:00 17.4 19 Nordeste 33 Este 0 1026.6 -0.7 33
2019-03-29 11:00:00 16.7 22 Este 35 Este 0 1027.1 -0.3 36
2019-03-29 10:00:00 15.6 19 Nordeste 26 Nordeste 0 1027.4 0.2 43
2019-03-29 09:00:00 12.4 10 Este 17 Este 0 1027.3 0.3 64
2019-03-29 08:00:00 6.8 7 Este 9 Este 0 1027.4 0.6 75
2019-03-29 07:00:00 3.6 7 Nordeste 9 Nordeste 0 1027.2 0.3 82
2019-03-29 06:00:00 3 0 Calma 8 Nordeste 0 1027 0.1 87
2019-03-29 05:00:00 3.2 4 Nordeste 9 Nordeste 0 1026.8 -0.2 85
2019-03-29 04:00:00 4.1 5 Nordeste 8 Nordeste 0 1026.9 -0.2 85
2019-03-29 03:00:00 4.6 0 Calma 11 Nordeste 0 1026.9 -0.5 83
2019-03-29 02:00:00 4.7 4 Este 9 Este 0 1027 -0.6 85
2019-03-29 01:00:00 5.4 8 Este 9 Este 0 1027.1 -0.7 83
2019-03-29 00:00:00 5.8 8 Nordeste 11 Este 0 1027.4 -0.2 81
2019-03-28 23:00:00 7 3 Nordeste 8 Nordeste 0 1027.6 0.7 74
2019-03-28 22:00:00 8.2 6 Este 9 Nordeste 0 1027.8 1.2 72
2019-03-28 21:00:00 10.4 6 Este 9 Este 0 1027.6 1.4 64
2019-03-28 20:00:00 12.9 7 Nordeste 13 Sudoeste 0 1026.9 1.2 64
2019-03-28 19:00:00 14.7 13 Sudoeste 26 Sudoeste 0 1026.6 1.2 60
2019-03-28 18:00:00 16.2 19 Sudoeste 28 Sudoeste 0 1026.2 0.6 55
2019-03-28 17:00:00 17.8 14 Este 33 Este 0 1025.7 -0.2 32
2019-03-28 16:00:00 18.4 27 Este 42 Este 0 1025.4 -0.7 30
2019-03-28 15:00:00 18.5 28 Este 46 Este 0 1025.6 -0.8 32
2019-03-28 14:00:00 18.6 26 Este 46 Este 0 1025.9 -0.7 32
2019-03-28 13:00:00 18.4 27 Este 41 Este 0 1026.1 -0.5 31
2019-03-28 12:00:00 17.9 27 Este 39 Este 0 1026.4 -0.1 33
2019-03-28 11:00:00 17.1 25 Este 35 Este 0 1026.6 0.3 35
2019-03-28 10:00:00 16.3 20 Este 33 Nordeste 0 1026.6 0.4 32
2019-03-28 09:00:00 12.6 4 Este 8 Este 0 1026.5 0.8 62
2019-03-28 08:00:00 6.8 0 Calma 4 Noroeste 0 1026.3 0.8 81
2019-03-28 07:00:00 2.1 2 Nordeste 5 Nordeste 0 1026.2 1 87
2019-03-28 06:00:00 3.4 0 Calma 9 Noroeste 0 1025.7 0.6 82
2019-03-28 05:00:00 4.3 4 Norte 11 Noroeste 0 1025.5 0.3 74
2019-03-28 04:00:00 5.3 6 Noroeste 9 Oeste 0 1025.2 -0.1 68
2019-03-28 03:00:00 4.5 0 Calma 11 Noroeste 0 1025.1 -0.3 73
2019-03-28 02:00:00 3.4 0 Calma 13 Nordeste 0 1025.2 0.1 81
2019-03-28 01:00:00 4.3 6 Nordeste 13 Norte 0 1025.3 0.1 78
2019-03-28 00:00:00 6.2 0 Calma 8 Norte 0 1025.4 0.5 75
2019-03-27 23:00:00 7.1 0 Calma 5 Nordeste 0 1025.1 0.8 75
2019-03-27 22:00:00 8.7 0 Calma 9 Norte 0 1025.2 2.1 59
2019-03-27 21:00:00 10.3 6 Nordeste 28 Nordeste 0 1024.9 2.2 56
2019-03-27 20:00:00 11.5 18 Este 32 Este 0 1024.3 1.7 62
2019-03-27 19:00:00 13.5 19 Este 32 Este 0 1023.1 0.4 47
2019-03-27 18:00:00 15.9 27 Este 37 Este 0 1022.7 0 31
2019-03-27 17:00:00 17 30 Este 45 Este 0 1022.6 -0.2 29
2019-03-27 16:00:00 17.5 34 Este 48 Este 0 1022.7 -0.4 26
2019-03-27 15:00:00 17.5 35 Este 48 Este 0 1022.7 -0.4 31
2019-03-27 14:00:00 17.9 30 Este 46 Este 0 1022.8 -0.2 28
2019-03-27 13:00:00 17.9 27 Este 42 Este 0 1023.1 0.4 25
2019-03-27 12:00:00 17.4 24 Nordeste 37 Nordeste 0 1023.1 0.5 27
2019-03-27 11:00:00 17 25 Este 33 Este 0 1023 0.3 32
2019-03-27 10:00:00 16 18 Este 30 Este 0 1022.7 0.5 41
2019-03-27 09:00:00 13.1 0 Calma 5 Sur 0 1022.6 0.5 59
2019-03-27 08:00:00 8 0 Calma 9 Este 0 1022.7 0.7 72
2019-03-27 07:00:00 4.4 7 Este 9 Este 0 1022.2 0.1 80
2019-03-27 06:00:00 4.8 0 Calma 11 Este 0 1022.1 -0.3 82
2019-03-27 05:00:00 4.6 7 Este 11 Este 0 1022 -0.5 80
2019-03-27 04:00:00 4.6 0 Calma 17 Este 0 1022.1 -0.4 78
2019-03-27 03:00:00 6.7 13 Este 21 Nordeste 0 1022.4 -0.1 70
2019-03-27 02:00:00 3.4 10 Nordeste 13 Nordeste 0 1022.5 -0.1 83
2019-03-27 01:00:00 4.3 0 Calma 15 Este 0 1022.5 -0.1 78
2019-03-27 00:00:00 4.2 5 Nordeste 15 Nordeste 0 1022.5 0.3 82
2019-03-26 23:00:00 5.8 2 Este 8 Este 0 1022.6 1 73
2019-03-26 22:00:00 6.5 3 Este 9 Nordeste 0 1022.6 1.7 72
2019-03-26 21:00:00 8.8 0 Calma 5 Este 0 1022.2 1.9 62
2019-03-26 20:00:00 10 6 Este 37 Nordeste 0 1021.6 1.5 58
2019-03-26 19:00:00 12.4 20 Nordeste 48 Nordeste 0 1020.9 1.1 49
2019-03-26 18:00:00 13.4 30 Nordeste 48 Este 0 1020.3 0.4 47
2019-03-26 17:00:00 14.4 37 Nordeste 58 Este 0 1020.1 0.2 40
2019-03-26 16:00:00 15.3 36 Este 52 Nordeste 0 1019.8 -0.4 38
2019-03-26 15:00:00 15.5 33 Nordeste 54 Este 0 1019.9 -0.1 34
2019-03-26 14:00:00 16.3 36 Nordeste 48 Nordeste 0 1019.9 -0.1 27
2019-03-26 13:00:00 16.5 32 Nordeste 52 Nordeste 0 1020.2 0.4 27
2019-03-26 12:00:00 17 33 Nordeste 52 Nordeste 0 1020 0.4 19
2019-03-26 11:00:00 16.4 36 Nordeste 52 Nordeste 0 1020 0.4 23
2019-03-26 10:00:00 15.8 39 Nordeste 54 Nordeste 0 1019.8 0.6 21
2019-03-26 09:00:00 14.5 26 Nordeste 41 Nordeste 0 1019.6 1.1 26
2019-03-26 08:00:00 11.2 8 Este 17 Nordeste 0 1019.6 1 72
2019-03-26 07:00:00 9 2 Oeste 30 Este 0 1019.2 1.1 83
2019-03-26 06:00:00 9.5 22 Este 32 Este 0 1018.5 0.3 83
2019-03-26 05:00:00 6.4 3 Nordeste 15 Este 0 1018.6 0 94
2019-03-26 04:00:00 6.6 6 Este 15 Norte 0 1018.1 -0.6 91
2019-03-26 03:00:00 7.4 10 Norte 13 Norte 0 1018.2 -0.4 92
2019-03-26 02:00:00 7.2 3 Este 9 Nordeste 0 1018.6 0.1 92
2019-03-26 01:00:00 6.9 6 Nordeste 9 Nordeste 0 1018.7 0.7 91
2019-03-26 00:00:00 8.2 5 Este 8 Este 0 1018.6 1.1 88
2019-03-25 23:00:00 8.8 0 Calma 8 Este 0 1018.5 1.2 84
2019-03-25 22:00:00 12.3 0 Calma 11 Sur 0 1018 1 70
2019-03-25 21:00:00 12.7 0 Calma 11 Sur 0 1017.5 0.5 71
2019-03-25 20:00:00 14.5 8 Sur 24 Oeste 0 1017.3 0.1 66
2019-03-25 19:00:00 16.5 15 Oeste 22 Oeste 0 1017 -0.7 59
2019-03-25 18:00:00 18.1 19 Oeste 28 Oeste 0 1017 -1 52
2019-03-25 17:00:00 19.1 22 Sudoeste 30 Sudoeste 0 1017.2 -1.3 50
2019-03-25 16:00:00 19.6 23 Sudoeste 32 Sudoeste 0 1017.7 -1.7 50
2019-03-25 15:00:00 21.3 10 Este 32 Nordeste 0 1018 -1.9 35
2019-03-25 14:00:00 21.3 21 Este 37 Este 0 1018.5 -1.9 34
2019-03-25 13:00:00 21.1 24 Este 37 Nordeste 0 1019.4 -1.1 34
2019-03-25 12:00:00 21 24 Este 35 Este 0 1019.9 -0.3 33
2019-03-25 11:00:00 20.4 26 Este 45 Este 0 1020.4 0 34
2019-03-25 10:00:00 18.1 0 Calma 8 Sudoeste 0 1020.5 0.2 49
2019-03-25 09:00:00 12.6 0 Calma 5 Sudoeste 0 1020.2 0.1 70
2019-03-25 08:00:00 8.3 0 Calma 9 Este 0 1020.4 0.2 93
2019-03-25 07:00:00 4.4 7 Nordeste 8 Nordeste 0 1020.3 0.1 96
2019-03-25 06:00:00 4.2 0 Calma 8 Norte 0 1020.1 -0.3 94
2019-03-25 05:00:00 5.3 6 Norte 11 Norte 0 1020.2 -0.4 97
2019-03-25 04:00:00 5.7 0 Calma 11 Nordeste 0 1020.2 -0.9 96
2019-03-25 03:00:00 6.5 7 Nordeste 9 Nordeste 0 1020.4 -1 97
2019-03-25 02:00:00 7.3 0 Calma 9 Norte 0 1020.6 -1 95
2019-03-25 01:00:00 8.2 3 Norte 8 Norte 0 1021.1 -0.7 97
2019-03-25 00:00:00 8.4 0 Calma 8 Nordeste 0 1021.4 -0.1 96
2019-03-24 23:00:00 9.4 0 Calma 8 Norte 0 1021.6 0.7 94
2019-03-24 22:00:00 10.7 8 Nordeste 9 Nordeste 0 1021.8 1 92
2019-03-24 21:00:00 12.9 0 Calma 9 Nordeste 0 1021.5 0.7 88
2019-03-24 20:00:00 14.7 8 Este 15 Sudeste 0 1020.9 0 81
2019-03-24 19:00:00 16.3 10 Sur 22 Sur 0 1020.8 -0.3 80
2019-03-24 18:00:00 18 17 Sur 33 Sur 0 1020.8 -0.7 71
2019-03-24 17:00:00 18.5 25 Sur 33 Sur 0 1020.9 -1.1 66
2019-03-24 16:00:00 19.2 23 Sudoeste 33 Sur 0 1021.1 -1.8 62
2019-03-24 15:00:00 19.4 21 Sur 33 Sudoeste 0 1021.5 -2 61
2019-03-24 14:00:00 19.1 22 Sudoeste 30 Sur 0 1022 -1.8 62
2019-03-24 13:00:00 19.1 15 Sudoeste 24 Sudoeste 0 1022.9 -0.9 61
2019-03-24 12:00:00 18.3 15 Sudoeste 22 Sudoeste 0 1023.5 0.1 63
2019-03-24 11:00:00 17.6 12 Sudoeste 17 Sudoeste 0 1023.8 0.3 64
2019-03-24 10:00:00 16.3 7 Sudoeste 15 Sudoeste 0 1023.8 0.6 69
2019-03-24 09:00:00 12.1 0 Calma 5 Este 0 1023.4 0.4 81
2019-03-24 08:00:00 7.7 0 Calma 5 Norte 0 1023.5 0.4 92
2019-03-24 07:00:00 6 5 Norte 8 Noroeste 0 1023.2 0 97
2019-03-24 06:00:00 6.1 6 Nordeste 13 Este 0 1023 -0.4 97
2019-03-24 05:00:00 7.4 5 Nordeste 17 Este 0 1023.1 -0.3 93
2019-03-24 04:00:00 7 8 Nordeste 11 Este 0 1023.2 -0.5 98
2019-03-24 03:00:00 5.6 6 Nordeste 8 Nordeste 0 1023.4 -0.6 95
2019-03-24 02:00:00 5.9 0 Calma -- -- 0 1023.4 -0.8 93
2019-03-24 01:00:00 7 0 Calma 4 Nordeste 0 1023.7 -0.5 91
2019-03-24 00:00:00 7.7 4 Nordeste 5 Nordeste 0 1024 -0.2 90
2019-03-23 23:00:00 9 3 Este 9 Este 0 1024.2 0.5 86
2019-03-23 22:00:00 10.4 0 Calma 5 Este 0 1024.2 0.6 82
2019-03-23 21:00:00 11.7 3 Este 5 Nordeste 0 1024.2 0.8 77
2019-03-23 20:00:00 14 4 Oeste 11 Sudoeste 0 1023.7 0.2 67
2019-03-23 19:00:00 17.3 6 Sur 18 Sudoeste 0 1023.6 0.1 50
2019-03-23 18:00:00 18.4 14 Sur 28 Sudoeste 0 1023.4 -0.3 49
2019-03-23 17:00:00 18.9 19 Sudoeste 24 Sudoeste 0 1023.5 -0.4 47
2019-03-23 16:00:00 19.6 19 Sudoeste 32 Sudoeste 0 1023.5 -1 46
2019-03-23 15:00:00 19.6 24 Sudoeste 32 Sudoeste 0 1023.7 -1 47
2019-03-23 14:00:00 20.3 22 Sudoeste 30 Sudoeste 0 1023.9 -1.3 48
2019-03-23 13:00:00 21.5 21 Sudoeste 32 Sudoeste 0 1024.5 -1 42
2019-03-23 12:00:00 21.1 9 Este 24 Nordeste 0 1024.7 -0.5 42
2019-03-23 11:00:00 19.6 18 Este 26 Este 0 1025.2 0.1 45
2019-03-23 10:00:00 18.4 17 Este -- -- -- 1025.5 0.7 51
2019-03-23 09:00:00 16.4 9 Este 15 Este 0 1025.2 0.7 64
2019-03-23 08:00:00 13.3 8 Norte 11 Norte 0 1025.1 1.1 77
2019-03-23 07:00:00 11.9 0 Calma 13 Nordeste 0 1024.8 0.6 87
2019-03-23 06:00:00 11.5 9 Nordeste 22 Nordeste 0 1024.5 0 87
2019-03-23 05:00:00 11.8 5 Este 9 Este 0 1024 -1 92
2019-03-23 04:00:00 11 0 Calma 5 Este 0 1024.2 -0.7 93
2019-03-23 03:00:00 10.4 5 Nordeste 9 Este 0 1024.5 -0.7 94
2019-03-23 02:00:00 11.5 5 Nordeste 13 Este 0 1025 -0.2 93
2019-03-23 01:00:00 11.9 10 Este 15 Este 0 1024.9 -0.1 93
2019-03-23 00:00:00 12.3 5 Nordeste 15 Este 0 1025.2 0.4 90
2019-03-22 23:00:00 12.8 14 Este 21 Este 0 1025.2 0.8 89
2019-03-22 22:00:00 13.2 17 Este 26 Este 0 1025 1.2 87
2019-03-22 21:00:00 13.8 20 Nordeste 28 Nordeste 0 1024.8 1.4 84
2019-03-22 20:00:00 14.7 12 Nordeste 30 Nordeste 0 1024.4 1.1 78
2019-03-22 19:00:00 15.1 20 Nordeste 41 Este 0 1023.8 0.4 74
2019-03-22 18:00:00 15.9 30 Este 41 Este 0 1023.4 -0.4 64
2019-03-22 17:00:00 17 30 Este 39 Este 0 1023.3 -0.8 65
2019-03-22 16:00:00 19.6 24 Este 37 Nordeste 0 1023.4 -1 47
2019-03-22 15:00:00 19.5 30 Este 52 Nordeste 0 1023.8 -0.7 44
2019-03-22 14:00:00 19.7 27 Nordeste 46 Nordeste 0 1024.1 -0.7 48
2019-03-22 13:00:00 19.6 33 Nordeste 52 Este 0 1024.4 -0.4 46
2019-03-22 12:00:00 18.9 32 Nordeste 46 Este 0 1024.5 0.1 51
2019-03-22 11:00:00 17.7 36 Este 48 Este 0 1024.8 0.4 58
2019-03-22 10:00:00 16.6 27 Nordeste 42 Este 0 1024.8 0.8 61
2019-03-22 09:00:00 15.4 15 Nordeste 28 Nordeste 0 1024.4 0.7 64
2019-03-22 08:00:00 12.9 10 Nordeste 26 Norte 0 1024.4 0.9 70
2019-03-22 07:00:00 11 18 Este 30 Este 0 1024 0.3 83
2019-03-22 06:00:00 9.7 10 Nordeste 18 Este 0 1023.7 -0.3 83
2019-03-22 05:00:00 8.7 11 Nordeste 17 Nordeste 0 1023.5 -0.7 84
2019-03-22 04:00:00 8.9 8 Noroeste 21 Nordeste 0 1023.7 -0.7 82
2019-03-22 03:00:00 9.8 12 Nordeste 17 Nordeste 0 1024 -0.8 84
2019-03-22 02:00:00 11 10 Norte 21 Norte 0 1024.2 -1.1 76
2019-03-22 01:00:00 11.4 15 Norte 32 Nordeste 0 1024.4 -0.8 75
2019-03-22 00:00:00 12 22 Nordeste 30 Nordeste 0 1024.8 0 73
2019-03-21 23:00:00 11.9 14 Nordeste 22 Nordeste 0 1025.3 0.7 72
2019-03-21 22:00:00 11.9 20 Nordeste 30 Nordeste 0 1025.2 0.9 68
2019-03-21 21:00:00 11.9 19 Nordeste 30 Nordeste 0 1024.8 0.9 70
2019-03-21 20:00:00 12.4 17 Nordeste 33 Nordeste 0 1024.6 0.9 64
2019-03-21 19:00:00 13.4 26 Nordeste 50 Nordeste 0 1024.3 0.6 67
2019-03-21 18:00:00 14.2 37 Nordeste 59 Nordeste 0 1023.9 -0.1 55
2019-03-21 17:00:00 14.9 39 Nordeste 52 Nordeste 0 1023.7 -0.7 53
2019-03-21 16:00:00 15.3 35 Nordeste 50 Nordeste 0 1023.7 -1.4 52
2019-03-21 15:00:00 15.5 32 Nordeste 50 Este 0 1024 -1.3 49
2019-03-21 14:00:00 15.2 36 Nordeste 48 Nordeste 0 1024.4 -0.9 53
2019-03-21 13:00:00 15.6 32 Nordeste 52 Nordeste 0 1025.1 0 51
2019-03-21 12:00:00 15.5 35 Nordeste 52 Nordeste 0 1025.3 0.6 50
2019-03-21 11:00:00 14.3 33 Nordeste 50 Nordeste 0 1025.3 0.8 58
2019-03-21 10:00:00 14.1 31 Nordeste 50 Nordeste 0 1025.1 1 53
2019-03-21 09:00:00 13.6 26 Nordeste 39 Nordeste 0 1024.7 0.7 63
2019-03-21 08:00:00 10.8 14 Nordeste 21 Nordeste 0 1024.5 0.3 64
2019-03-21 07:00:00 9.5 13 Nordeste 21 Nordeste 0 1024.1 -0.2 62
2019-03-21 06:00:00 9.2 12 Nordeste 21 Nordeste 0 1024 -1 62
2019-03-21 05:00:00 8.2 10 Nordeste 21 Nordeste 0 1024.2 -1.2 69
2019-03-21 04:00:00 9.8 14 Norte 22 Nordeste 0 1024.3 -1.7 63
2019-03-21 03:00:00 6.7 8 Este 21 Nordeste 0 1025 -1.4 81
2019-03-21 02:00:00 5.9 9 Nordeste 13 Nordeste 0 1025.4 -1.2 88
2019-03-21 01:00:00 7.1 5 Nordeste 15 Nordeste 0 1026 -0.8 83
2019-03-21 00:00:00 7.6 7 Nordeste 11 Nordeste 0 1026.4 -0.2 82
2019-03-20 23:00:00 8.4 7 Nordeste 17 Norte 0 1026.6 0.6 76
2019-03-20 22:00:00 9.1 9 Norte 13 Norte 0 1026.8 1.2 74
2019-03-20 21:00:00 9.8 11 Nordeste 28 Nordeste 0 1026.6 1.5 72
2019-03-20 20:00:00 10.8 20 Nordeste 32 Nordeste 0 1026 0.8 69
2019-03-20 19:00:00 12.5 20 Nordeste 35 Nordeste 0 1025.6 -0.1 68
2019-03-20 18:00:00 13.4 26 Nordeste 39 Nordeste 0.2 1025.1 -1 66
2019-03-20 17:00:00 10.9 13 Norte 17 Noroeste 0 1025.2 -0.7 84
2019-03-20 16:00:00 9.2 6 Norte 32 Nordeste 0.8 1025.7 0.2 88
2019-03-20 15:00:00 9.4 30 Nordeste 42 Nordeste 0.4 1026.1 -0.2 81
2019-03-20 14:00:00 10.9 31 Nordeste 55 Nordeste 0 1025.9 0.2 72
2019-03-20 13:00:00 12.7 20 Nordeste 45 Nordeste 0 1025.5 -0.2 65
2019-03-20 12:00:00 10.1 22 Este 61 Nordeste 0.6 1026.3 0.7 81
2019-03-20 11:00:00 13.4 26 Nordeste 41 Nordeste 0 1025.7 0.3 51
2019-03-20 10:00:00 13.4 27 Nordeste 41 Nordeste 0 1025.7 0.7 47
2019-03-20 09:00:00 12.7 25 Nordeste 39 Nordeste 0 1025.6 1.1 49
2019-03-20 08:00:00 11.7 18 Nordeste 24 Nordeste 0 1025.4 1.2 65
2019-03-20 07:00:00 10.5 13 Nordeste 24 Nordeste 0 1025 1 70
2019-03-20 06:00:00 10.5 16 Nordeste 28 Nordeste 0 1024.5 0.3 76
2019-03-20 05:00:00 8.8 0 Calma 15 Norte 0 1024.2 -0.4 75
2019-03-20 04:00:00 8.9 7 Noroeste 21 Nordeste 0 1024 -0.4 76
2019-03-20 03:00:00 9.9 14 Nordeste 26 Nordeste 0 1024.2 -0.2 76
2019-03-20 02:00:00 11.3 19 Nordeste 32 Nordeste 0 1024.6 0.2 72
2019-03-20 01:00:00 11.3 19 Nordeste 32 Nordeste 0 1024.4 0.3 71
2019-03-20 00:00:00 10.2 17 Nordeste 24 Nordeste 0 1024.4 0.5 75
2019-03-19 23:00:00 8.8 9 Nordeste 24 Nordeste 0 1024.4 1 81
2019-03-19 22:00:00 9.2 13 Norte 18 Norte 0 1024.1 1 76
2019-03-19 21:00:00 9.1 11 Norte 17 Norte 0 1023.9 1.5 74
2019-03-19 20:00:00 9.5 2 Norte 11 Este 0 1023.4 1.3 75
2019-03-19 19:00:00 11.3 12 Este 26 Nordeste 0 1023.1 1.1 69
2019-03-19 18:00:00 12.5 21 Nordeste 32 Este 0 1022.4 0.5 61
2019-03-19 17:00:00 13.5 24 Nordeste 35 Este 0 1022.1 -0.4 57
2019-03-19 16:00:00 13.4 24 Este 35 Este 0 1022 -0.8 61
2019-03-19 15:00:00 13.1 14 Este 26 Este 0 1021.9 -1.1 66
2019-03-19 14:00:00 12.7 23 Este 35 Este 0 1022.5 -0.8 69
2019-03-19 13:00:00 12 2 Norte 9 Norte 0 1022.8 -0.1 75
2019-03-19 12:00:00 10.6 6 Sur 13 Sur 0.8 1023 0.6 87
2019-03-19 11:00:00 9.9 11 Este 17 Nordeste 2 1023.3 1.8 89
2019-03-19 10:00:00 10 9 Nordeste 18 Noroeste 2.4 1022.9 1.3 97
2019-03-19 09:00:00 9.6 14 Noroeste 22 Noroeste 0.8 1022.4 0.7 96
2019-03-19 08:00:00 8.8 17 Sudeste 22 Sudeste 1.8 1021.5 -0.4 100
2019-03-19 07:00:00 7.8 5 Este 9 Este 0 1021.6 -0.4 99
2019-03-19 06:00:00 7.3 0 Calma -- -- 0 1021.7 -0.9 100
2019-03-19 05:00:00 6.9 0 Calma 8 Este 0 1021.9 -1.5 100
2019-03-19 04:00:00 6.7 5 Norte 9 Norte 0 1022 -1.8 100
2019-03-19 03:00:00 6.5 8 Norte 11 Noroeste 0 1022.6 -1.3 100
2019-03-19 02:00:00 7 2 Norte 8 Noroeste 0 1023.4 -0.6 99
2019-03-19 01:00:00 7.2 0 Calma 8 Norte 0 1023.8 0.1 99
2019-03-19 00:00:00 7.1 3 Norte 8 Norte 0 1023.9 0.5 99